Airport Name : Omsk

Other Name : Omsk

ICAO : UNOO

IATA : OMS

FAA :

Latitude : 54.967042

Longitude : 73.310514

Country : Russia

Local Date and Time : 16 Jul 2024 00:27

 

TAF (Terminal Aerodrome Forecast)

TAF UNOO 151700Z 1518/1618 05003G10MPS 9999 SCT033CB PROB40 TEMPO 1518/1524 VRB12MPS -TSRA BKN020CB TEMPO 1606/1616 VRB14MPS -TSRA SCT010 BKN030CB

 

METAR (METeorological Aerodrome Report)

UNOO 151800Z 05005MPS 9999 SCT033CB 23/17 Q1008 R07/CLRD60 NOSIG RMK QFE748

UNOO 151730Z 05005MPS 9999 SCT033CB 23/18 Q1008 R07/CLRD60 NOSIG RMK QFE748

UNOO 151700Z 05004MPS 9999 SCT033CB 24/18 Q1009 R07/CLRD60 NOSIG RMK QFE748

UNOO 151630Z 06005MPS 9999 SCT033CB 25/18 Q1008 R07/CLRD60 NOSIG RMK QFE748

UNOO 151600Z 03004MPS 9999 SCT033CB 25/19 Q1008 R07/CLRD60 NOSIG RMK QFE748

UNOO 151530Z 04004MPS 9999 SCT033CB 26/18 Q1008 R07/CLRD60 NOSIG RMK QFE747

UNOO 151500Z 03004MPS 9999 SCT033CB 26/18 Q1008 R07/CLRD60 NOSIG RMK QFE747

UNOO 151430Z 04005MPS 9999 SCT033CB 27/19 Q1008 R07/CLRD60 NOSIG RMK QFE747